Time;durP1;ratioP1;P1;durP2;ratioP2;P2;SDS_P1;SDS_P2;PMS_P1;PMS_P2;Temp;Humidity;BMP_temperature;BMP_pressure;BME280_temperature;BME280_humidity;BME280_pressure;Samples;Min_cycle;Max_cycle;Signal;HPM_P1;HPM_P2
2021/10/12 00:01:21;;;;;;;1.63;1.53;;;8.20;99.90;;;;;;5093549;28;20209;-69
2021/10/12 00:03:46;;;;;;;1.93;1.83;;;8.10;99.90;;;;;;5095231;28;20197;-70
2021/10/12 00:06:12;;;;;;;2.93;2.63;;;8.10;99.90;;;;;;5095376;28;20186;-69
2021/10/12 00:08:39;;;;;;;2.83;2.63;;;8.20;99.90;;;;;;5095561;28;20243;-69
2021/10/12 00:11:05;;;;;;;3.87;3.00;;;8.20;99.90;;;;;;5095413;28;20664;-69
2021/10/12 00:13:31;;;;;;;3.47;2.53;;;8.20;99.90;;;;;;5095004;28;20411;-70
2021/10/12 00:15:59;;;;;;;2.33;2.03;;;8.10;99.90;;;;;;5095726;28;20463;-69
2021/10/12 00:18:25;;;;;;;3.40;2.03;;;8.10;99.90;;;;;;5094992;28;20420;-70
2021/10/12 00:20:51;;;;;;;2.40;2.20;;;8.00;99.90;;;;;;5095095;28;20996;-70
2021/10/12 00:23:17;;;;;;;9.73;3.00;;;8.00;99.90;;;;;;5093056;28;20668;-70
2021/10/12 00:25:42;;;;;;;3.73;2.63;;;8.10;99.90;;;;;;5094727;28;20408;-70
2021/10/12 00:28:08;;;;;;;2.60;2.13;;;8.10;99.90;;;;;;5078463;28;20435;-70
2021/10/12 00:30:33;;;;;;;3.87;3.03;;;8.00;99.90;;;;;;5075003;28;20552;-70
2021/10/12 00:32:59;;;;;;;2.27;2.03;;;8.00;99.90;;;;;;5074532;28;20178;-70
2021/10/12 00:35:24;;;;;;;3.27;3.00;;;8.00;99.90;;;;;;5074443;28;20482;-70
2021/10/12 00:37:50;;;;;;;11.70;2.80;;;8.00;99.90;;;;;;5074480;28;20217;-70
2021/10/12 00:40:15;;;;;;;3.63;2.50;;;8.00;99.90;;;;;;5074291;28;20195;-70
2021/10/12 00:42:41;;;;;;;3.03;2.77;;;7.90;99.90;;;;;;5074219;28;20257;-70
2021/10/12 00:45:10;;;;;;;4.03;2.13;;;7.90;99.90;;;;;;5074393;28;20178;-70
2021/10/12 00:47:36;;;;;;;3.30;1.50;;;7.90;99.90;;;;;;5074486;28;20277;-69
2021/10/12 00:50:03;;;;;;;2.10;2.00;;;7.90;99.90;;;;;;5077324;28;20499;-70
2021/10/12 00:52:29;;;;;;;2.00;1.90;;;7.90;99.90;;;;;;5094067;28;20193;-69
2021/10/12 00:54:54;;;;;;;3.87;1.90;;;8.00;99.90;;;;;;5094608;28;20429;-69
2021/10/12 00:57:20;;;;;;;1.67;1.57;;;8.00;99.90;;;;;;5094603;28;20632;-70
2021/10/12 00:59:45;;;;;;;2.23;2.13;;;8.00;99.90;;;;;;5094333;28;20198;-70
2021/10/12 01:02:11;;;;;;;1.40;1.30;;;8.00;99.90;;;;;;5094071;28;20174;-69
2021/10/12 01:04:38;;;;;;;2.20;1.37;;;7.90;99.90;;;;;;5094174;28;20707;-70
2021/10/12 01:07:03;;;;;;;5.87;1.97;;;7.90;99.90;;;;;;5094210;28;20306;-70
2021/10/12 01:09:29;;;;;;;2.90;1.70;;;7.80;99.90;;;;;;5094388;28;20897;-71
2021/10/12 01:11:54;;;;;;;3.80;2.00;;;7.70;99.90;;;;;;5075931;28;20182;-70
2021/10/12 01:14:20;;;;;;;5.17;4.77;;;7.70;99.90;;;;;;5073816;28;20311;-70
2021/10/12 01:16:45;;;;;;;2.87;2.40;;;7.90;99.90;;;;;;5078241;28;20678;-70
2021/10/12 01:19:11;;;;;;;2.67;2.33;;;7.80;99.90;;;;;;5093813;28;20194;-68
2021/10/12 01:21:46;;;;;;;3.73;2.30;;;7.80;99.90;;;;;;5093892;28;20660;-71
2021/10/12 01:24:11;;;;;;;2.30;2.10;;;7.70;99.90;;;;;;5076531;28;20726;-70
2021/10/12 01:26:39;;;;;;;4.63;2.30;;;7.80;99.90;;;;;;5084739;28;20459;-70
2021/10/12 01:29:05;;;;;;;2.90;2.70;;;7.80;99.90;;;;;;5073474;28;20470;-68
2021/10/12 01:31:32;;;;;;;2.63;2.37;;;7.90;99.90;;;;;;5073535;28;20404;-70
2021/10/12 01:33:58;;;;;;;3.63;3.40;;;7.90;99.90;;;;;;5073098;28;20416;-70
2021/10/12 01:36:24;;;;;;;3.20;2.97;;;7.90;99.90;;;;;;5073512;28;20474;-70
2021/10/12 01:38:49;;;;;;;4.20;3.03;;;7.90;99.90;;;;;;5073507;28;20484;-70
2021/10/12 01:41:15;;;;;;;4.23;2.67;;;7.90;99.90;;;;;;5073454;28;20553;-68
2021/10/12 01:43:41;;;;;;;5.20;2.10;;;7.90;99.90;;;;;;5073727;28;20584;-70
2021/10/12 01:46:07;;;;;;;3.47;3.17;;;7.90;99.90;;;;;;5073167;28;20416;-70
2021/10/12 01:48:34;;;;;;;2.47;2.27;;;7.90;99.90;;;;;;5073572;28;20222;-71
2021/10/12 01:51:00;;;;;;;2.67;2.47;;;7.80;99.90;;;;;;5084521;28;20420;-70
2021/10/12 01:53:26;;;;;;;2.10;2.00;;;7.80;99.90;;;;;;5091653;28;20504;-70
2021/10/12 01:55:52;;;;;;;2.10;2.00;;;7.70;99.90;;;;;;5093307;28;20443;-70
2021/10/12 01:58:17;;;;;;;3.07;2.70;;;7.70;99.90;;;;;;5093088;28;20773;-70
2021/10/12 02:00:43;;;;;;;1.33;1.23;;;7.70;99.90;;;;;;5093258;28;20505;-69
2021/10/12 02:03:08;;;;;;;2.10;1.90;;;7.80;99.90;;;;;;5092927;28;20173;-69
2021/10/12 02:05:34;;;;;;;1.53;1.23;;;7.80;99.90;;;;;;5093098;28;20190;-70
2021/10/12 02:08:00;;;;;;;1.30;1.20;;;7.70;99.90;;;;;;5093165;28;20628;-70
2021/10/12 02:10:25;;;;;;;2.20;1.00;;;7.60;99.90;;;;;;5092892;28;20421;-69
2021/10/12 02:12:51;;;;;;;1.83;1.20;;;7.60;99.90;;;;;;5092530;28;20202;-70
2021/10/12 02:15:16;;;;;;;1.40;1.30;;;7.60;99.90;;;;;;5092844;28;20177;-69
2021/10/12 02:17:42;;;;;;;5.30;1.53;;;7.50;99.90;;;;;;5092828;28;20194;-69
2021/10/12 02:20:09;;;;;;;0.90;0.90;;;7.50;99.90;;;;;;5092559;28;20586;-69
2021/10/12 02:22:35;;;;;;;1.67;1.27;;;7.50;99.90;;;;;;5092729;28;20237;-70
2021/10/12 02:25:01;;;;;;;1.23;1.10;;;7.50;99.90;;;;;;5092261;28;20404;-69
2021/10/12 02:27:27;;;;;;;3.17;0.90;;;7.50;99.90;;;;;;5081812;28;20183;-69
2021/10/12 02:29:52;;;;;;;1.10;0.80;;;7.60;99.90;;;;;;5072505;28;20417;-69
2021/10/12 02:32:18;;;;;;;0.77;0.77;;;7.60;99.90;;;;;;5072300;28;20166;-70
2021/10/12 02:34:44;;;;;;;1.10;1.00;;;7.40;99.90;;;;;;5072582;28;20162;-70
2021/10/12 02:37:10;;;;;;;3.80;1.10;;;7.40;99.90;;;;;;5072509;28;20448;-70
2021/10/12 02:39:35;;;;;;;1.27;1.03;;;7.50;99.90;;;;;;5072313;28;20566;-69
2021/10/12 02:42:01;;;;;;;1.50;1.20;;;7.40;99.90;;;;;;5072206;28;20648;-69
2021/10/12 02:44:27;;;;;;;2.10;1.17;;;7.40;99.90;;;;;;5071741;28;20174;-70
2021/10/12 02:46:52;;;;;;;1.27;0.93;;;7.50;99.90;;;;;;5072099;28;20198;-70
2021/10/12 02:49:18;;;;;;;1.70;1.23;;;7.40;99.90;;;;;;5072586;28;20269;-70
2021/10/12 02:51:43;;;;;;;0.80;0.80;;;7.30;99.90;;;;;;5089978;28;20166;-70
2021/10/12 02:54:09;;;;;;;1.80;1.23;;;7.30;99.90;;;;;;5092040;28;20659;-70
2021/10/12 02:56:34;;;;;;;2.93;1.80;;;7.40;99.90;;;;;;5092601;28;20185;-70
2021/10/12 02:59:00;;;;;;;1.43;0.90;;;7.40;99.90;;;;;;5092369;28;20681;-69
2021/10/12 03:01:25;;;;;;;1.50;1.30;;;7.50;99.90;;;;;;5092532;28;20188;-69
2021/10/12 03:03:51;;;;;;;1.47;0.90;;;7.50;99.90;;;;;;5091583;28;20632;-69
2021/10/12 03:06:16;;;;;;;0.93;0.93;;;7.50;99.90;;;;;;5092146;28;20251;-69
2021/10/12 03:08:41;;;;;;;1.20;1.10;;;7.40;99.90;;;;;;5092293;28;20178;-69
2021/10/12 03:11:07;;;;;;;1.13;0.90;;;7.40;99.90;;;;;;5091740;28;20174;-69
2021/10/12 03:13:32;;;;;;;3.40;1.43;;;7.50;99.90;;;;;;5091886;28;20170;-69
2021/10/12 03:15:58;;;;;;;1.20;1.00;;;7.40;99.90;;;;;;5092360;28;20189;-69
2021/10/12 03:18:23;;;;;;;2.73;1.17;;;7.40;99.90;;;;;;5091382;28;20308;-69
2021/10/12 03:20:49;;;;;;;1.10;0.90;;;7.40;99.90;;;;;;5091792;28;20178;-69
2021/10/12 03:23:14;;;;;;;2.37;0.80;;;7.40;99.90;;;;;;5090738;28;20166;-69
2021/10/12 03:25:40;;;;;;;7.57;1.60;;;7.40;99.90;;;;;;5090798;28;20228;-69
2021/10/12 03:28:05;;;;;;;1.30;1.07;;;7.40;99.90;;;;;;5082978;28;20516;-69
2021/10/12 03:30:31;;;;;;;2.73;0.90;;;7.40;99.90;;;;;;5091504;28;20178;-69
2021/10/12 03:32:56;;;;;;;3.80;1.40;;;7.40;99.90;;;;;;5091333;28;20164;-71
2021/10/12 03:35:34;;;;;;;1.53;1.20;;;7.30;99.90;;;;;;5090650;28;20197;-70
2021/10/12 03:38:00;;;;;;;1.27;0.80;;;7.30;99.90;;;;;;5091890;28;20258;-70
2021/10/12 03:40:26;;;;;;;2.17;1.27;;;7.30;99.90;;;;;;5091497;28;20531;-70
2021/10/12 03:42:52;;;;;;;1.20;0.80;;;7.40;99.90;;;;;;5091416;28;20435;-69
2021/10/12 03:45:17;;;;;;;1.00;0.90;;;7.50;99.90;;;;;;5091525;28;20473;-69
2021/10/12 03:47:43;;;;;;;0.80;0.80;;;7.50;99.90;;;;;;5091295;28;20276;-69
2021/10/12 03:50:09;;;;;;;1.47;0.80;;;7.50;99.90;;;;;;5091687;28;20173;-69
2021/10/12 03:52:34;;;;;;;1.23;1.13;;;7.50;99.90;;;;;;5091263;28;20174;-69
2021/10/12 03:55:00;;;;;;;2.10;1.37;;;7.50;99.90;;;;;;5091520;28;20511;-69
2021/10/12 03:57:25;;;;;;;0.60;0.60;;;7.60;99.90;;;;;;5091618;28;20278;-69
2021/10/12 03:59:51;;;;;;;1.70;1.60;;;7.60;99.90;;;;;;5091732;28;20198;-69
2021/10/12 04:02:16;;;;;;;4.30;1.17;;;7.70;99.90;;;;;;5090984;28;20177;-69
2021/10/12 04:04:42;;;;;;;3.63;0.90;;;7.60;99.90;;;;;;5091850;28;20642;-69
2021/10/12 04:07:07;;;;;;;1.30;1.20;;;7.50;99.90;;;;;;5091172;28;20193;-69
2021/10/12 04:09:33;;;;;;;1.20;1.10;;;7.60;99.90;;;;;;5090967;28;20169;-69
2021/10/12 04:11:58;;;;;;;1.53;1.43;;;7.60;99.90;;;;;;5091175;28;20304;-69
2021/10/12 04:14:24;;;;;;;2.60;1.83;;;7.60;99.90;;;;;;5091115;28;20174;-70
2021/10/12 04:16:49;;;;;;;1.17;1.07;;;7.80;99.90;;;;;;5091540;28;20202;-70
2021/10/12 04:19:15;;;;;;;1.33;1.23;;;7.80;99.90;;;;;;5091046;28;20216;-69
2021/10/12 04:21:41;;;;;;;1.53;1.33;;;7.80;99.90;;;;;;5091152;28;20166;-69
2021/10/12 04:24:06;;;;;;;1.53;1.40;;;7.90;99.90;;;;;;5090489;28;20182;-69
2021/10/12 04:26:32;;;;;;;1.80;1.13;;;7.90;99.90;;;;;;5088273;28;20463;-69
2021/10/12 04:28:57;;;;;;;1.97;1.20;;;8.00;99.90;;;;;;5087048;28;20180;-69
2021/10/12 04:31:23;;;;;;;3.10;1.97;;;8.00;99.90;;;;;;5091193;28;20532;-69
2021/10/12 04:33:48;;;;;;;7.93;2.80;;;8.10;99.90;;;;;;5091113;28;20216;-69
2021/10/12 04:36:14;;;;;;;5.50;3.27;;;8.10;99.90;;;;;;5091349;28;20194;-69
2021/10/12 04:38:40;;;;;;;5.43;3.70;;;8.10;99.90;;;;;;5090779;28;20202;-70
2021/10/12 04:41:07;;;;;;;2.67;2.47;;;8.10;99.90;;;;;;5090807;28;20170;-70
2021/10/12 04:43:33;;;;;;;3.83;3.53;;;8.20;99.90;;;;;;5090864;28;20163;-68
2021/10/12 04:45:58;;;;;;;5.33;4.70;;;8.10;99.90;;;;;;5090796;28;20833;-69
2021/10/12 04:48:23;;;;;;;13.00;3.77;;;8.20;99.90;;;;;;5094100;28;20170;-69
2021/10/12 04:50:49;;;;;;;5.70;3.20;;;8.20;99.90;;;;;;5094691;28;20165;-69
2021/10/12 04:53:14;;;;;;;6.23;4.10;;;8.20;99.90;;;;;;5094580;28;20226;-69
2021/10/12 04:55:43;;;;;;;4.83;4.07;;;8.20;99.90;;;;;;5095130;28;20391;-69
2021/10/12 04:58:09;;;;;;;5.60;3.63;;;8.20;99.90;;;;;;5094828;28;20184;-69
2021/10/12 05:00:35;;;;;;;4.83;3.80;;;8.20;99.90;;;;;;5094768;28;20444;-69
2021/10/12 05:03:00;;;;;;;5.50;4.23;;;8.20;99.90;;;;;;5094404;28;20407;-70
2021/10/12 05:05:26;;;;;;;5.03;4.03;;;8.20;99.90;;;;;;5094287;28;20413;-70
2021/10/12 05:07:51;;;;;;;5.40;3.20;;;8.20;99.90;;;;;;5093958;28;20275;-70
2021/10/12 05:10:17;;;;;;;4.93;3.43;;;8.30;99.90;;;;;;5094393;28;20246;-70
2021/10/12 05:12:42;;;;;;;5.77;4.47;;;8.30;99.90;;;;;;5094073;28;20596;-70
2021/10/12 05:15:08;;;;;;;5.83;3.50;;;8.20;99.90;;;;;;5094066;28;20199;-69
2021/10/12 05:17:37;;;;;;;2.80;2.50;;;8.30;99.90;;;;;;5093955;28;20658;-69
2021/10/12 05:20:04;;;;;;;2.10;1.90;;;8.30;99.90;;;;;;5093782;28;20456;-69
2021/10/12 05:22:30;;;;;;;2.63;2.43;;;8.20;99.90;;;;;;5093603;28;20428;-69
2021/10/12 05:24:55;;;;;;;1.63;1.50;;;8.20;99.90;;;;;;5094497;28;20435;-69
2021/10/12 05:27:21;;;;;;;2.70;1.40;;;8.20;99.90;;;;;;5083997;28;20192;-69
2021/10/12 05:29:46;;;;;;;2.30;1.77;;;8.20;99.90;;;;;;5073762;28;20166;-69
2021/10/12 05:32:12;;;;;;;2.33;1.60;;;8.10;99.90;;;;;;5072120;28;20167;-69
2021/10/12 05:34:38;;;;;;;3.70;1.50;;;8.10;99.90;;;;;;5073832;28;20182;-69
2021/10/12 05:37:03;;;;;;;1.27;1.20;;;8.00;99.90;;;;;;5073873;28;20744;-69
2021/10/12 05:39:29;;;;;;;1.63;1.40;;;8.00;99.90;;;;;;5074186;28;20628;-69
2021/10/12 05:41:55;;;;;;;1.30;1.20;;;8.00;99.90;;;;;;5073927;28;20162;-69
2021/10/12 05:44:21;;;;;;;1.10;1.00;;;8.00;99.90;;;;;;5073488;28;20634;-69
2021/10/12 05:46:46;;;;;;;2.13;1.37;;;8.00;99.90;;;;;;5073687;28;20427;-69
2021/10/12 05:49:12;;;;;;;1.27;1.03;;;8.00;99.90;;;;;;5073787;28;20171;-69
2021/10/12 05:51:37;;;;;;;1.23;1.13;;;8.00;99.90;;;;;;5074018;28;20522;-69
2021/10/12 05:54:05;;;;;;;3.00;2.50;;;8.00;99.90;;;;;;5073349;28;20182;-69
2021/10/12 05:59:34;;;;;;;2.90;2.60;;;8.20;99.90;;;;;;5030131;28;20450;-69
2021/10/12 06:02:00;;;;;;;1.97;1.87;;;8.20;99.90;;;;;;5030903;28;20549;-70
2021/10/12 06:04:26;;;;;;;1.60;1.50;;;8.30;99.90;;;;;;5061027;28;20741;-69
2021/10/12 06:06:54;;;;;;;1.70;1.50;;;8.20;99.90;;;;;;5093613;28;20429;-69
2021/10/12 06:09:19;;;;;;;2.90;2.70;;;8.30;99.90;;;;;;5093525;28;20436;-69
2021/10/12 06:11:45;;;;;;;2.73;1.87;;;8.30;99.90;;;;;;5093279;28;20971;-70
2021/10/12 06:14:11;;;;;;;1.57;1.47;;;8.30;99.90;;;;;;5092688;28;20552;-70
2021/10/12 06:16:36;;;;;;;4.67;2.80;;;8.30;99.90;;;;;;5092620;28;20699;-69
2021/10/12 06:19:02;;;;;;;3.87;3.47;;;8.40;99.90;;;;;;5093135;28;20213;-70
2021/10/12 06:21:27;;;;;;;2.67;2.30;;;8.40;99.90;;;;;;5093255;28;20170;-70
2021/10/12 06:23:52;;;;;;;2.70;2.30;;;8.40;99.90;;;;;;5093019;28;20163;-70
2021/10/12 06:26:18;;;;;;;2.37;1.90;;;8.50;99.90;;;;;;5091480;28;20684;-69
2021/10/12 06:28:44;;;;;;;5.10;3.63;;;8.50;99.90;;;;;;5072901;28;20174;-69
2021/10/12 06:31:09;;;;;;;3.17;2.87;;;8.60;99.90;;;;;;5072812;28;20900;-69
2021/10/12 06:33:35;;;;;;;4.23;2.43;;;8.70;99.90;;;;;;5084098;28;20182;-70
2021/10/12 06:36:01;;;;;;;2.67;2.47;;;8.70;99.90;;;;;;5097077;28;20179;-72
2021/10/12 06:38:26;;;;;;;5.43;2.20;;;8.80;99.90;;;;;;5096955;28;20197;-70
2021/10/12 06:40:52;;;;;;;2.00;1.80;;;8.80;99.90;;;;;;5097143;28;20250;-69
2021/10/12 06:43:18;;;;;;;2.20;1.70;;;8.80;99.90;;;;;;5095000;28;20227;-71
2021/10/12 06:45:44;;;;;;;3.33;2.87;;;8.80;99.90;;;;;;5094950;28;20655;-70
2021/10/12 06:48:10;;;;;;;1.90;1.67;;;8.80;99.90;;;;;;5096537;28;20586;-70
2021/10/12 06:50:36;;;;;;;2.43;1.93;;;8.90;99.90;;;;;;5096236;28;20405;-71
2021/10/12 06:53:03;;;;;;;2.67;2.10;;;9.00;99.90;;;;;;5086975;28;20216;-69
2021/10/12 06:55:29;;;;;;;4.93;2.63;;;9.00;99.90;;;;;;5076134;28;20175;-70
2021/10/12 06:57:54;;;;;;;6.57;2.67;;;9.20;99.90;;;;;;5080290;28;20506;-70
2021/10/12 07:00:20;;;;;;;2.60;2.37;;;9.30;99.90;;;;;;5093999;28;20345;-70
2021/10/12 07:02:47;;;;;;;2.50;2.30;;;9.40;99.90;;;;;;5092776;28;20168;-70
2021/10/12 07:05:14;;;;;;;2.90;2.60;;;9.40;99.90;;;;;;5092674;28;20400;-70
2021/10/12 07:07:39;;;;;;;4.30;3.90;;;9.40;99.90;;;;;;5092611;28;20416;-69
2021/10/12 07:10:07;;;;;;;4.00;3.60;;;9.40;99.90;;;;;;5092351;28;20582;-70
2021/10/12 07:12:32;;;;;;;4.17;2.70;;;9.50;99.90;;;;;;5092160;28;20172;-70
2021/10/12 07:14:58;;;;;;;3.50;3.17;;;9.50;99.90;;;;;;5092345;28;20944;-70
2021/10/12 07:17:24;;;;;;;1.87;1.67;;;9.60;99.90;;;;;;5092323;28;20189;-70
2021/10/12 07:19:49;;;;;;;1.93;1.60;;;9.50;99.90;;;;;;5091726;28;20530;-69
2021/10/12 07:22:15;;;;;;;1.97;1.60;;;9.40;99.90;;;;;;5092015;28;20199;-71
2021/10/12 07:24:40;;;;;;;0.90;0.90;;;9.60;99.90;;;;;;5092207;28;20625;-71
2021/10/12 07:27:08;;;;;;;2.60;1.50;;;9.40;99.90;;;;;;5092106;28;20193;-70
2021/10/12 07:29:34;;;;;;;1.30;1.20;;;9.40;99.90;;;;;;5092332;28;20263;-71
2021/10/12 07:32:00;;;;;;;1.97;1.77;;;9.40;99.90;;;;;;5092812;28;20461;-71
2021/10/12 07:34:25;;;;;;;2.37;1.70;;;9.70;99.90;;;;;;5091798;28;20415;-71
2021/10/12 07:36:51;;;;;;;3.27;1.40;;;9.90;99.90;;;;;;5092084;28;20186;-71
2021/10/12 07:39:16;;;;;;;1.27;0.93;;;9.70;99.90;;;;;;5091993;28;20189;-71
2021/10/12 07:41:42;;;;;;;1.20;1.10;;;9.60;99.90;;;;;;5091836;28;20169;-71
2021/10/12 07:44:07;;;;;;;1.33;1.20;;;9.60;99.90;;;;;;5091725;28;20172;-71
2021/10/12 07:46:33;;;;;;;1.00;0.90;;;9.70;99.90;;;;;;5091958;28;20217;-71
2021/10/12 07:48:59;;;;;;;1.40;1.30;;;9.80;99.90;;;;;;5091906;28;20179;-71
2021/10/12 07:51:26;;;;;;;2.70;1.57;;;10.10;99.90;;;;;;5091832;28;20555;-71
2021/10/12 07:53:52;;;;;;;2.07;1.10;;;10.20;99.90;;;;;;5091478;28;20411;-71
2021/10/12 07:56:28;;;;;;;1.30;1.20;;;10.40;99.90;;;;;;5091827;28;20472;-71
2021/10/12 07:58:54;;;;;;;4.10;1.10;;;10.40;99.90;;;;;;5092039;28;20446;-71
2021/10/12 08:01:19;;;;;;;1.10;1.00;;;10.30;99.90;;;;;;5091754;28;20411;-71
2021/10/12 08:03:46;;;;;;;1.27;1.17;;;10.30;99.90;;;;;;5091626;28;20181;-71
2021/10/12 08:06:11;;;;;;;1.63;1.53;;;10.00;99.90;;;;;;5091727;28;20193;-71
2021/10/12 08:08:36;;;;;;;1.60;1.00;;;9.90;99.90;;;;;;5091835;28;20959;-71
2021/10/12 08:11:04;;;;;;;1.17;1.07;;;10.00;99.90;;;;;;5091456;28;20177;-71
2021/10/12 08:13:29;;;;;;;1.10;1.00;;;10.00;99.90;;;;;;5091491;28;20537;-70
2021/10/12 08:16:01;;;;;;;1.00;0.90;;;9.80;99.90;;;;;;5091655;28;20419;-71
2021/10/12 08:18:26;;;;;;;1.00;0.80;;;9.90;99.90;;;;;;5091579;28;20178;-71
2021/10/12 08:20:52;;;;;;;1.20;1.10;;;9.90;99.90;;;;;;5091760;28;20392;-71
2021/10/12 08:23:17;;;;;;;1.90;1.00;;;9.80;99.90;;;;;;5094807;28;20628;-71
2021/10/12 08:25:43;;;;;;;1.73;1.10;;;9.90;99.90;;;;;;5095218;28;20166;-71
2021/10/12 08:28:08;;;;;;;0.80;0.80;;;10.00;99.90;;;;;;5079055;28;20171;-71
2021/10/12 08:30:34;;;;;;;0.90;0.80;;;10.30;99.90;;;;;;5075294;28;20201;-71
2021/10/12 08:33:00;;;;;;;1.10;0.80;;;10.40;99.90;;;;;;5074838;28;20261;-71
2021/10/12 08:35:25;;;;;;;1.17;1.03;;;10.20;99.90;;;;;;5075065;28;20178;-71
2021/10/12 08:37:50;;;;;;;1.10;1.00;;;10.40;99.90;;;;;;5074946;28;20565;-70
2021/10/12 08:40:17;;;;;;;1.40;1.00;;;10.60;99.90;;;;;;5076273;28;20580;-71
2021/10/12 08:42:46;;;;;;;2.50;1.53;;;10.40;99.90;;;;;;5089162;28;20181;-69
2021/10/12 08:45:14;;;;;;;0.90;0.90;;;10.20;99.90;;;;;;5095380;28;20404;-70
2021/10/12 08:47:40;;;;;;;0.83;0.83;;;10.10;99.90;;;;;;5095714;28;20423;-70
2021/10/12 08:50:08;;;;;;;0.97;0.83;;;10.20;99.90;;;;;;5100962;28;20468;-70
2021/10/12 08:52:34;;;;;;;0.70;0.70;;;10.30;99.90;;;;;;5099836;28;20173;-70
2021/10/12 08:54:59;;;;;;;1.10;0.80;;;10.60;99.90;;;;;;5099470;28;20915;-70
2021/10/12 08:57:30;;;;;;;1.07;0.93;;;10.70;99.90;;;;;;5099358;28;20224;-70
2021/10/12 08:59:59;;;;;;;0.70;0.70;;;10.80;99.90;;;;;;5098935;28;20213;-70
2021/10/12 09:02:26;;;;;;;1.00;0.77;;;10.90;99.90;;;;;;5098765;28;20412;-70
2021/10/12 09:04:53;;;;;;;1.33;0.90;;;11.00;99.90;;;;;;5099616;28;20900;-70
2021/10/12 09:07:25;;;;;;;0.80;0.80;;;10.40;99.90;;;;;;5099300;28;20800;-70
2021/10/12 09:09:56;;;;;;;0.80;0.73;;;10.40;99.90;;;;;;5099230;28;20407;-70
2021/10/12 09:12:44;;;;;;;1.23;1.13;;;10.30;99.90;;;;;;5097404;28;20416;-70
2021/10/12 09:15:11;;;;;;;0.90;0.90;;;10.20;99.90;;;;;;5099014;28;20416;-70
2021/10/12 09:17:39;;;;;;;1.83;0.80;;;10.10;99.90;;;;;;5098842;28;20462;-71
2021/10/12 09:20:11;;;;;;;2.00;0.80;;;10.10;99.90;;;;;;5098200;28;20820;-71
2021/10/12 09:22:37;;;;;;;0.70;0.63;;;9.90;99.90;;;;;;5077649;28;20809;-72
2021/10/12 09:25:08;;;;;;;0.80;0.80;;;10.10;99.90;;;;;;5078056;28;20431;-70
2021/10/12 09:27:54;;;;;;;0.90;0.80;;;10.60;99.90;;;;;;5089902;28;20436;-70
2021/10/12 09:30:31;;;;;;;0.80;0.70;;;10.90;99.90;;;;;;5097637;28;20400;-70
2021/10/12 09:32:59;;;;;;;1.10;1.00;;;11.20;99.90;;;;;;5095729;28;20506;-74
2021/10/12 09:35:31;;;;;;;0.93;0.70;;;11.50;99.90;;;;;;5097686;28;20399;-72
2021/10/12 09:38:07;;;;;;;0.80;0.80;;;11.70;99.90;;;;;;5097426;28;20434;-69
2021/10/12 09:40:36;;;;;;;1.00;0.70;;;11.90;99.90;;;;;;5079425;28;20436;-70
2021/10/12 09:43:02;;;;;;;1.93;0.77;;;11.40;99.90;;;;;;5075950;28;20413;-70
2021/10/12 09:45:35;;;;;;;1.23;0.80;;;11.40;99.90;;;;;;5077209;28;20393;-70
2021/10/12 09:48:01;;;;;;;2.40;0.80;;;11.00;99.90;;;;;;5077861;28;21220;-70
2021/10/12 09:50:33;;;;;;;0.87;0.87;;;11.10;99.90;;;;;;5077735;28;20409;-70
2021/10/12 09:52:59;;;;;;;0.70;0.70;;;11.30;99.90;;;;;;5077139;28;20162;-71
2021/10/12 09:55:37;;;;;;;0.80;0.80;;;11.20;99.90;;;;;;5077211;28;20408;-71
2021/10/12 09:58:03;;;;;;;0.80;0.80;;;11.10;99.90;;;;;;5076902;28;20412;-70
2021/10/12 10:00:30;;;;;;;1.20;0.77;;;11.50;99.90;;;;;;5077539;28;20456;-70
2021/10/12 10:02:57;;;;;;;1.27;0.80;;;11.90;99.90;;;;;;5077809;28;20891;-69
2021/10/12 10:05:23;;;;;;;1.00;0.77;;;12.10;99.90;;;;;;5080447;28;20418;-70
2021/10/12 10:07:52;;;;;;;1.47;1.37;;;12.00;99.90;;;;;;5089133;28;20815;-70
2021/10/12 10:10:17;;;;;;;1.13;0.80;;;11.90;99.90;;;;;;5087636;28;20855;-70
2021/10/12 10:12:43;;;;;;;1.10;0.70;;;11.60;99.90;;;;;;5098098;28;20485;-70
2021/10/12 10:15:09;;;;;;;0.93;0.90;;;11.30;99.90;;;;;;5097170;28;20192;-70
2021/10/12 10:17:40;;;;;;;0.90;0.70;;;11.50;99.90;;;;;;5097742;28;20254;-70
2021/10/12 10:20:07;;;;;;;0.70;0.70;;;11.70;99.90;;;;;;5097805;28;20201;-70
2021/10/12 10:25:26;;;;;;;1.13;0.80;;;11.50;99.90;;;;;;5096775;28;20471;-70
2021/10/12 10:27:52;;;;;;;0.77;0.70;;;11.60;99.90;;;;;;5083825;28;20424;-70
2021/10/12 10:30:23;;;;;;;0.90;0.80;;;11.70;99.90;;;;;;5077504;28;20757;-70
2021/10/12 10:32:52;;;;;;;2.93;0.93;;;11.90;99.90;;;;;;5076965;28;20404;-70
2021/10/12 10:35:33;;;;;;;1.97;1.10;;;12.10;99.90;;;;;;5077116;28;20449;-70
2021/10/12 10:38:28;;;;;;;0.70;0.67;;;12.10;99.90;;;;;;5077405;28;20401;-70
2021/10/12 10:41:03;;;;;;;0.83;0.60;;;12.00;99.90;;;;;;5068194;28;20504;-70
2021/10/12 10:43:48;;;;;;;1.40;0.70;;;11.70;99.90;;;;;;5076367;28;20400;-70
2021/10/12 10:46:32;;;;;;;0.87;0.80;;;11.70;99.90;;;;;;5076636;28;21120;-70
2021/10/12 10:49:13;;;;;;;0.70;0.70;;;11.60;99.90;;;;;;5077289;28;20407;-70
2021/10/12 10:52:05;;;;;;;0.93;0.77;;;11.60;99.90;;;;;;5077198;28;20401;-70
2021/10/12 10:54:37;;;;;;;2.33;0.80;;;11.90;99.90;;;;;;5077307;28;20411;-70
2021/10/12 10:57:18;;;;;;;0.70;0.70;;;11.90;99.90;;;;;;5088213;28;20434;-70
2021/10/12 10:59:44;;;;;;;0.80;0.70;;;12.10;99.90;;;;;;5088892;28;20447;-70
2021/10/12 11:02:33;;;;;;;0.70;0.70;;;12.20;99.90;;;;;;5096866;28;20400;-70
2021/10/12 11:04:59;;;;;;;0.70;0.70;;;11.70;99.90;;;;;;5096352;28;20487;-70
2021/10/12 11:07:28;;;;;;;0.63;0.60;;;11.90;99.90;;;;;;5095593;28;20549;-70
2021/10/12 11:09:55;;;;;;;1.13;0.80;;;12.00;99.90;;;;;;5096666;28;20173;-70
2021/10/12 11:12:28;;;;;;;0.60;0.60;;;12.30;99.90;;;;;;5096758;28;20403;-70
2021/10/12 11:15:03;;;;;;;0.80;0.63;;;12.50;99.90;;;;;;5096530;28;20533;-70
2021/10/12 11:17:30;;;;;;;1.77;1.67;;;12.70;99.90;;;;;;5095586;28;20428;-70
2021/10/12 11:20:09;;;;;;;0.80;0.70;;;12.70;99.90;;;;;;5096047;28;20953;-70
2021/10/12 11:22:39;;;;;;;1.33;0.70;;;12.50;99.90;;;;;;5096114;28;20408;-70
2021/10/12 11:25:05;;;;;;;0.80;0.80;;;12.30;99.90;;;;;;5095562;28;20403;-70
2021/10/12 11:27:45;;;;;;;0.63;0.63;;;12.30;99.90;;;;;;5084835;28;20429;-70
2021/10/12 11:30:12;;;;;;;0.70;0.70;;;12.10;99.90;;;;;;5075949;28;20400;-70
2021/10/12 11:32:40;;;;;;;0.50;0.50;;;11.90;99.90;;;;;;5075981;28;20423;-70
2021/10/12 11:35:12;;;;;;;0.70;0.60;;;11.60;99.90;;;;;;5075343;28;20404;-70
2021/10/12 11:37:54;;;;;;;0.70;0.70;;;11.80;99.90;;;;;;5075639;28;20431;-70
2021/10/12 11:40:23;;;;;;;1.43;0.80;;;11.70;99.90;;;;;;5075821;28;20474;-69
2021/10/12 11:42:49;;;;;;;1.27;0.70;;;11.60;99.90;;;;;;5075653;28;20403;-69
2021/10/12 11:45:15;;;;;;;0.63;0.63;;;11.70;99.90;;;;;;5074769;28;20392;-69
2021/10/12 11:47:42;;;;;;;1.90;1.20;;;11.80;99.90;;;;;;5075979;28;20935;-70
2021/10/12 11:50:10;;;;;;;0.77;0.77;;;12.00;99.90;;;;;;5075950;28;20200;-70
2021/10/12 11:52:35;;;;;;;0.67;0.60;;;12.30;99.90;;;;;;5074741;28;20403;-70
2021/10/12 11:55:09;;;;;;;0.80;0.80;;;12.40;99.90;;;;;;5075087;28;20413;-70
2021/10/12 11:57:36;;;;;;;1.53;0.70;;;12.40;99.90;;;;;;5091368;28;20262;-70
2021/10/12 12:00:02;;;;;;;1.03;0.83;;;12.60;99.90;;;;;;5094979;28;20505;-70
2021/10/12 12:02:31;;;;;;;0.93;0.80;;;12.60;99.90;;;;;;5095329;28;20396;-70
2021/10/12 12:05:01;;;;;;;0.93;0.60;;;12.80;99.90;;;;;;5095251;28;20436;-70
2021/10/12 12:07:34;;;;;;;1.20;0.77;;;13.00;99.90;;;;;;5094782;28;20434;-70
2021/10/12 12:10:00;;;;;;;0.80;0.70;;;12.80;99.90;;;;;;5095675;28;20721;-70
2021/10/12 12:12:26;;;;;;;1.07;0.97;;;12.50;99.90;;;;;;5095425;28;20498;-70
2021/10/12 12:14:53;;;;;;;1.50;0.90;;;12.20;99.90;;;;;;5095568;28;20411;-70
2021/10/12 12:17:24;;;;;;;0.83;0.77;;;12.20;99.90;;;;;;5095128;28;20427;-70
2021/10/12 12:19:53;;;;;;;0.70;0.70;;;12.00;99.90;;;;;;5094603;28;20474;-70
2021/10/12 12:22:29;;;;;;;1.00;0.77;;;12.20;99.90;;;;;;5095488;28;20401;-70
2021/10/12 12:24:59;;;;;;;0.97;0.73;;;12.30;99.90;;;;;;5095364;28;20400;-70
2021/10/12 12:27:27;;;;;;;0.80;0.80;;;12.40;99.90;;;;;;5084538;28;20506;-70
2021/10/12 12:30:02;;;;;;;0.60;0.60;;;12.30;99.90;;;;;;5074519;28;20438;-69
2021/10/12 12:32:28;;;;;;;1.00;0.80;;;12.40;99.90;;;;;;5075581;28;20432;-70
2021/10/12 12:35:06;;;;;;;0.60;0.60;;;12.50;99.90;;;;;;5085821;28;20797;-70
2021/10/12 12:37:31;;;;;;;0.80;0.70;;;12.60;99.90;;;;;;5094797;28;20537;-71
2021/10/12 12:39:58;;;;;;;0.83;0.80;;;12.70;99.90;;;;;;5094772;28;20461;-70
2021/10/12 12:42:34;;;;;;;0.87;0.60;;;12.60;99.90;;;;;;5095759;28;20162;-70
2021/10/12 12:45:15;;;;;;;0.80;0.80;;;12.80;99.90;;;;;;5094636;28;20399;-70
2021/10/12 12:47:55;;;;;;;1.10;0.80;;;12.70;99.90;;;;;;5095023;28;20424;-71
2021/10/12 12:50:32;;;;;;;1.00;0.70;;;12.80;99.90;;;;;;5095005;28;20406;-71
2021/10/12 12:53:00;;;;;;;0.60;0.60;;;12.90;99.90;;;;;;5094888;28;20400;-71
2021/10/12 12:55:43;;;;;;;0.97;0.80;;;13.10;99.90;;;;;;5095575;28;20406;-69
2021/10/12 12:58:11;;;;;;;0.70;0.70;;;13.30;99.90;;;;;;5094818;28;20407;-70
2021/10/12 13:00:58;;;;;;;0.97;0.80;;;13.10;99.90;;;;;;5095434;28;20435;-70